Time;durP1;ratioP1;P1;durP2;ratioP2;P2;SDS_P1;SDS_P2;PMS_P1;PMS_P2;Temp;Humidity;BMP_temperature;BMP_pressure;BME280_temperature;BME280_humidity;BME280_pressure;Samples;Min_cycle;Max_cycle;Signal;HPM_P1;HPM_P2
2023/06/09 00:01:38;;;;;;;;;;;13.90;99.90;;;;;;4978844;28;20021;-35
2023/06/09 00:04:06;;;;;;;;;;;13.90;99.90;;;;;;4992513;28;19922;-36
2023/06/09 00:06:35;;;;;;;;;;;13.80;99.90;;;;;;4995141;28;20381;-35
2023/06/09 00:09:04;;;;;;;;;;;13.90;99.90;;;;;;4993489;28;19976;-37
2023/06/09 00:11:30;;;;;;;;;;;13.90;99.90;;;;;;4992672;28;19928;-37
2023/06/09 00:13:57;;;;;;;;;;;13.90;99.90;;;;;;4994618;28;19964;-36
2023/06/09 00:16:24;;;;;;;;;;;13.90;99.90;;;;;;4994965;28;19976;-34
2023/06/09 00:18:50;;;;;;;;;;;13.90;99.90;;;;;;4991443;28;19925;-37
2023/06/09 00:21:18;;;;;;;;;;;13.90;99.90;;;;;;4991346;28;20012;-36
2023/06/09 00:23:45;;;;;;;;;;;13.80;99.90;;;;;;4994604;28;19991;-37
2023/06/09 00:26:12;;;;;;;;;;;13.80;99.90;;;;;;4993980;28;20373;-36
2023/06/09 00:28:38;;;;;;;;;;;13.80;99.90;;;;;;4994374;28;19965;-38
2023/06/09 00:31:05;;;;;;;;;;;13.80;99.90;;;;;;4993006;28;19969;-35
2023/06/09 00:33:31;;;;;;;;;;;13.80;99.90;;;;;;4993874;28;19928;-39
2023/06/09 00:35:58;;;;;;;;;;;13.80;99.90;;;;;;4994865;28;19977;-34
2023/06/09 00:38:26;;;;;;;;;;;13.80;99.90;;;;;;4990248;28;20290;-37
2023/06/09 00:40:53;;;;;;;;;;;13.80;99.90;;;;;;4986321;28;19993;-35
2023/06/09 00:43:19;;;;;;;;;;;13.80;99.90;;;;;;5007227;28;19979;-38
2023/06/09 00:45:46;;;;;;;;;;;13.70;99.90;;;;;;4984898;28;20381;-37
2023/06/09 00:48:13;;;;;;;;;;;13.70;99.90;;;;;;4979607;28;19984;-35
2023/06/09 00:50:40;;;;;;;;;;;13.70;99.90;;;;;;4985217;28;19968;-35
2023/06/09 00:53:06;;;;;;;;;;;13.70;99.90;;;;;;4993244;28;20028;-38
2023/06/09 00:55:34;;;;;;;;;;;13.70;99.90;;;;;;4982633;28;19961;-35
2023/06/09 00:58:01;;;;;;;;;;;13.70;99.90;;;;;;4974385;28;19973;-38
2023/06/09 01:00:28;;;;;;;;;;;13.70;99.90;;;;;;4990560;28;19927;-34
2023/06/09 01:02:56;;;;;;;;;;;13.60;99.90;;;;;;4974954;28;20298;-36
2023/06/09 01:05:23;;;;;;;;;;;13.60;99.90;;;;;;4973746;28;19997;-38
2023/06/09 01:07:54;;;;;;;;;;;13.60;99.90;;;;;;4974051;28;19933;-39
2023/06/09 01:10:23;;;;;;;;;;;13.60;99.90;;;;;;4991239;28;20385;-40
2023/06/09 01:12:55;;;;;;;;;;;13.60;99.90;;;;;;4992504;28;19976;-35
2023/06/09 01:15:21;;;;;;;;;;;13.60;99.90;;;;;;4988607;28;19968;-37
2023/06/09 01:17:49;;;;;;;;;;;13.60;99.90;;;;;;4992084;28;19933;-36
2023/06/09 01:20:17;;;;;;;;;;;13.70;99.90;;;;;;4992964;28;19947;-35
2023/06/09 01:22:45;;;;;;;;;;;13.60;99.90;;;;;;4993524;28;19925;-38
2023/06/09 01:25:22;;;;;;;;;;;13.60;99.90;;;;;;4993667;28;20008;-34
2023/06/09 01:27:49;;;;;;;;;;;13.70;99.90;;;;;;4992639;28;19965;-35
2023/06/09 01:30:15;;;;;;;;;;;13.60;99.90;;;;;;4994005;28;19926;-38
2023/06/09 01:32:42;;;;;;;;;;;13.60;99.90;;;;;;4982383;28;19922;-38
2023/06/09 01:35:09;;;;;;;;;;;13.50;99.90;;;;;;4992734;28;20025;-36
2023/06/09 01:37:36;;;;;;;;;;;13.60;99.90;;;;;;4991879;28;19928;-37
2023/06/09 01:40:03;;;;;;;;;;;13.60;99.90;;;;;;4985714;28;19977;-36
2023/06/09 01:42:31;;;;;;;;;;;13.50;99.90;;;;;;4988961;28;20345;-38
2023/06/09 01:44:58;;;;;;;;;;;13.60;99.90;;;;;;4989031;28;20375;-34
2023/06/09 01:47:24;;;;;;;;;;;13.60;99.90;;;;;;4986332;28;20011;-35
2023/06/09 01:49:54;;;;;;;;;;;13.50;99.90;;;;;;4982555;28;19968;-38
2023/06/09 01:52:22;;;;;;;;;;;13.50;99.90;;;;;;4993618;28;19988;-37
2023/06/09 01:54:49;;;;;;;;;;;13.40;99.90;;;;;;4993212;28;20412;-36
2023/06/09 01:57:19;;;;;;;;;;;13.30;99.90;;;;;;4991439;28;19980;-35
2023/06/09 01:59:48;;;;;;;;;;;13.30;99.90;;;;;;4992359;28;20012;-33
2023/06/09 02:02:15;;;;;;;;;;;13.30;99.90;;;;;;4992976;28;20021;-38
2023/06/09 02:04:41;;;;;;;;;;;13.20;99.90;;;;;;4991975;28;19926;-38
2023/06/09 02:07:08;;;;;;;;;;;13.20;99.90;;;;;;4980896;28;19921;-30
2023/06/09 02:09:35;;;;;;;;;;;13.20;99.90;;;;;;4993146;28;20013;-34
2023/06/09 02:12:01;;;;;;;;;;;13.10;99.90;;;;;;4992413;28;19926;-37
2023/06/09 02:14:32;;;;;;;;;;;13.20;99.90;;;;;;4993143;28;19992;-36
2023/06/09 02:17:02;;;;;;;;;;;13.10;99.90;;;;;;4992296;28;20381;-35
2023/06/09 02:19:30;;;;;;;;;;;13.10;99.90;;;;;;4993118;28;20087;-41
2023/06/09 02:21:57;;;;;;;;;;;13.10;99.90;;;;;;4993008;28;19921;-36
2023/06/09 02:24:28;;;;;;;;;;;13.00;99.90;;;;;;4990848;28;19976;-35
2023/06/09 02:26:54;;;;;;;;;;;13.00;99.90;;;;;;4992133;28;20000;-38
2023/06/09 02:29:21;;;;;;;;;;;13.00;99.90;;;;;;4989628;28;19968;-36
2023/06/09 02:31:48;;;;;;;;;;;12.90;99.90;;;;;;4985602;28;19925;-34
2023/06/09 02:34:16;;;;;;;;;;;12.90;99.90;;;;;;4983479;28;20068;-39
2023/06/09 02:36:42;;;;;;;;;;;13.00;99.90;;;;;;4991932;28;20344;-35
2023/06/09 02:39:09;;;;;;;;;;;12.90;99.90;;;;;;4981829;28;19922;-38
2023/06/09 02:41:36;;;;;;;;;;;12.90;99.90;;;;;;4975612;28;19968;-35
2023/06/09 02:44:02;;;;;;;;;;;12.80;99.90;;;;;;4983217;28;19973;-36
2023/06/09 02:46:29;;;;;;;;;;;12.70;99.90;;;;;;4972608;28;19922;-35
2023/06/09 02:48:56;;;;;;;;;;;12.70;99.90;;;;;;4976379;28;20385;-35
2023/06/09 02:51:24;;;;;;;;;;;12.70;99.90;;;;;;5008431;28;20367;-36
2023/06/09 02:53:51;;;;;;;;;;;12.70;99.90;;;;;;4977158;28;20405;-36
2023/06/09 02:56:18;;;;;;;;;;;12.70;99.90;;;;;;4993190;28;20366;-38
2023/06/09 02:58:45;;;;;;;;;;;12.70;99.90;;;;;;4994811;28;20004;-36
2023/06/09 03:01:12;;;;;;;;;;;12.70;99.90;;;;;;4994938;28;19976;-35
2023/06/09 03:03:39;;;;;;;;;;;12.70;99.90;;;;;;4993426;28;19930;-36
2023/06/09 03:06:07;;;;;;;;;;;12.70;99.90;;;;;;4994454;28;20294;-36
2023/06/09 03:08:38;;;;;;;;;;;12.70;99.90;;;;;;4992843;28;20302;-36
2023/06/09 03:11:05;;;;;;;;;;;12.70;99.90;;;;;;4993280;28;19961;-36
2023/06/09 03:13:31;;;;;;;;;;;12.70;99.90;;;;;;4991491;28;19995;-37
2023/06/09 03:15:58;;;;;;;;;;;12.60;99.90;;;;;;4993996;28;19972;-40
2023/06/09 03:18:25;;;;;;;;;;;12.60;99.90;;;;;;4993776;28;19922;-34
2023/06/09 03:20:51;;;;;;;;;;;12.60;99.90;;;;;;4993629;28;20012;-40
2023/06/09 03:23:18;;;;;;;;;;;12.60;99.90;;;;;;4994690;28;19971;-38
2023/06/09 03:25:46;;;;;;;;;;;12.60;99.90;;;;;;4992543;28;19965;-35
2023/06/09 03:28:12;;;;;;;;;;;12.60;99.90;;;;;;4994809;28;19992;-37
2023/06/09 03:30:39;;;;;;;;;;;12.60;99.90;;;;;;4992420;28;19988;-36
2023/06/09 03:33:06;;;;;;;;;;;12.60;99.90;;;;;;4991666;28;20383;-37
2023/06/09 03:35:33;;;;;;;;;;;12.60;99.90;;;;;;4992436;28;19925;-36
2023/06/09 03:37:59;;;;;;;;;;;12.60;99.90;;;;;;4992250;28;20370;-36
2023/06/09 03:40:26;;;;;;;;;;;12.60;99.90;;;;;;4993657;28;19981;-38
2023/06/09 03:42:54;;;;;;;;;;;12.60;99.90;;;;;;4986754;28;20210;-36
2023/06/09 03:45:21;;;;;;;;;;;12.60;99.90;;;;;;4993281;28;20453;-38
2023/06/09 03:47:47;;;;;;;;;;;12.50;99.90;;;;;;4991129;28;20275;-39
2023/06/09 03:50:14;;;;;;;;;;;12.60;99.90;;;;;;4993646;28;20016;-36
2023/06/09 03:52:41;;;;;;;;;;;12.50;99.90;;;;;;4992539;28;19929;-36
2023/06/09 03:55:08;;;;;;;;;;;12.60;99.90;;;;;;4991972;28;19922;-40
2023/06/09 03:57:34;;;;;;;;;;;12.60;99.90;;;;;;4990864;28;19980;-35
2023/06/09 04:00:03;;;;;;;;;;;12.60;99.90;;;;;;4990659;28;19949;-38
2023/06/09 04:02:30;;;;;;;;;;;12.60;99.90;;;;;;4992011;28;20422;-38
2023/06/09 04:04:57;;;;;;;;;;;12.60;99.90;;;;;;4990900;28;20338;-37
2023/06/09 04:07:24;;;;;;;;;;;12.60;99.90;;;;;;4992651;28;19926;-37
2023/06/09 04:09:51;;;;;;;;;;;12.70;99.90;;;;;;4992735;28;19921;-38
2023/06/09 04:12:17;;;;;;;;;;;12.70;99.90;;;;;;4992781;28;19965;-34
2023/06/09 04:14:45;;;;;;;;;;;12.70;99.90;;;;;;4992746;28;19977;-39
2023/06/09 04:17:13;;;;;;;;;;;12.70;99.90;;;;;;4991365;28;19921;-32
2023/06/09 04:19:40;;;;;;;;;;;12.70;99.90;;;;;;4990101;28;19994;-34
2023/06/09 04:22:07;;;;;;;;;;;12.80;99.90;;;;;;4990652;28;20377;-39
2023/06/09 04:24:34;;;;;;;;;;;12.80;99.90;;;;;;4993053;28;19921;-39
2023/06/09 04:27:03;;;;;;;;;;;12.80;99.90;;;;;;4993844;28;19922;-36
2023/06/09 04:29:31;;;;;;;;;;;12.80;99.90;;;;;;4991139;28;20378;-39
2023/06/09 04:31:59;;;;;;;;;;;12.80;99.90;;;;;;4987049;28;19929;-37
2023/06/09 04:34:27;;;;;;;;;;;12.80;99.90;;;;;;4991307;28;19944;-36
2023/06/09 04:36:55;;;;;;;;;;;12.80;99.90;;;;;;4993475;28;19967;-40
2023/06/09 04:39:24;;;;;;;;;;;12.90;99.90;;;;;;4990513;28;19929;-32
2023/06/09 04:41:52;;;;;;;;;;;12.90;99.90;;;;;;4984339;28;20374;-37
2023/06/09 04:44:20;;;;;;;;;;;12.90;99.90;;;;;;4988429;28;19929;-36
2023/06/09 04:46:47;;;;;;;;;;;12.90;99.90;;;;;;4986942;28;20370;-39
2023/06/09 04:49:14;;;;;;;;;;;13.00;99.90;;;;;;5005467;28;20016;-38
2023/06/09 04:51:46;;;;;;;;;;;13.00;99.90;;;;;;4982882;28;19925;-37
2023/06/09 04:54:13;;;;;;;;;;;13.00;99.90;;;;;;4988903;28;19985;-36
2023/06/09 04:56:41;;;;;;;;;;;13.10;99.90;;;;;;4989449;28;20263;-36
2023/06/09 04:59:07;;;;;;;;;;;13.10;99.90;;;;;;4988510;28;19956;-34
2023/06/09 05:01:34;;;;;;;;;;;13.20;99.90;;;;;;4983873;28;19959;-36
2023/06/09 05:04:00;;;;;;;;;;;13.20;99.90;;;;;;4987104;28;19976;-39
2023/06/09 05:06:27;;;;;;;;;;;13.20;99.90;;;;;;4991274;28;19921;-36
2023/06/09 05:08:57;;;;;;;;;;;13.30;99.90;;;;;;4981502;28;20446;-37
2023/06/09 05:11:26;;;;;;;;;;;13.30;99.90;;;;;;4989144;28;20343;-36
2023/06/09 05:13:53;;;;;;;;;;;13.40;99.90;;;;;;4984939;28;20031;-37
2023/06/09 05:16:21;;;;;;;;;;;13.40;99.90;;;;;;4986405;28;19973;-37
2023/06/09 05:18:47;;;;;;;;;;;13.50;99.90;;;;;;4984466;28;19921;-34
2023/06/09 05:21:14;;;;;;;;;;;13.60;99.90;;;;;;4983453;28;20012;-37
2023/06/09 05:23:41;;;;;;;;;;;13.60;99.90;;;;;;4983317;28;20457;-37
2023/06/09 05:26:09;;;;;;;;;;;13.70;99.90;;;;;;4985861;28;19977;-36
2023/06/09 05:28:36;;;;;;;;;;;13.80;99.90;;;;;;4985898;28;19922;-37
2023/06/09 05:31:02;;;;;;;;;;;13.90;99.90;;;;;;4983740;28;20297;-36
2023/06/09 05:33:29;;;;;;;;;;;14.00;99.90;;;;;;4985447;28;20012;-37
2023/06/09 05:35:56;;;;;;;;;;;14.10;99.90;;;;;;4988015;28;20306;-36
2023/06/09 05:38:23;;;;;;;;;;;14.20;99.90;;;;;;4989847;28;20412;-37
2023/06/09 05:40:49;;;;;;;;;;;14.30;99.90;;;;;;4985754;28;20012;-41
2023/06/09 05:43:17;;;;;;;;;;;14.40;99.90;;;;;;4985974;28;19937;-39
2023/06/09 05:45:44;;;;;;;;;;;14.50;99.90;;;;;;4982328;28;19930;-35
2023/06/09 05:48:11;;;;;;;;;;;14.60;99.90;;;;;;4981977;28;19933;-36
2023/06/09 05:50:37;;;;;;;;;;;14.80;99.90;;;;;;4979890;28;20060;-38
2023/06/09 05:53:04;;;;;;;;;;;14.90;99.90;;;;;;4988418;28;19921;-37
2023/06/09 05:55:31;;;;;;;;;;;15.00;99.90;;;;;;4985857;28;19929;-41
2023/06/09 05:58:00;;;;;;;;;;;15.10;99.90;;;;;;4979844;28;20650;-35
2023/06/09 06:00:29;;;;;;;;;;;15.20;99.90;;;;;;4985745;28;19928;-39
2023/06/09 06:02:56;;;;;;;;;;;15.30;99.90;;;;;;4984721;28;20003;-33
2023/06/09 06:05:22;;;;;;;;;;;15.50;99.90;;;;;;4983332;28;19929;-39
2023/06/09 06:07:49;;;;;;;;;;;15.60;99.90;;;;;;4985014;28;19980;-40
2023/06/09 06:10:17;;;;;;;;;;;15.80;99.90;;;;;;4976814;28;20027;-40
2023/06/09 06:12:43;;;;;;;;;;;15.90;99.90;;;;;;4984474;28;19925;-39
2023/06/09 06:15:10;;;;;;;;;;;16.00;99.90;;;;;;4985827;28;19929;-36
2023/06/09 06:17:38;;;;;;;;;;;16.10;99.90;;;;;;4987957;28;19976;-38
2023/06/09 06:20:05;;;;;;;;;;;16.20;99.90;;;;;;4983566;28;20329;-35
2023/06/09 06:22:32;;;;;;;;;;;16.40;99.90;;;;;;4984294;28;19932;-40
2023/06/09 06:24:59;;;;;;;;;;;16.50;99.90;;;;;;4988094;28;19925;-35
2023/06/09 06:27:25;;;;;;;;;;;16.70;99.90;;;;;;4989830;28;20397;-40
2023/06/09 06:29:52;;;;;;;;;;;16.80;99.90;;;;;;4985740;28;19929;-39
2023/06/09 06:32:18;;;;;;;;;;;16.90;99.90;;;;;;4985092;28;20382;-38
2023/06/09 06:34:46;;;;;;;;;;;17.00;99.90;;;;;;4985074;28;19926;-34
2023/06/09 06:37:13;;;;;;;;;;;17.10;99.90;;;;;;4985178;28;19972;-37
2023/06/09 06:39:40;;;;;;;;;;;17.30;99.90;;;;;;4988510;28;19921;-36
2023/06/09 06:42:07;;;;;;;;;;;17.40;99.90;;;;;;4984888;28;19996;-39
2023/06/09 06:44:34;;;;;;;;;;;17.60;99.90;;;;;;4985175;28;19984;-39
2023/06/09 06:47:00;;;;;;;;;;;17.80;99.90;;;;;;4984668;28;19936;-39
2023/06/09 06:49:27;;;;;;;;;;;18.00;99.90;;;;;;4973257;28;20110;-36
2023/06/09 06:51:58;;;;;;;;;;;18.10;99.90;;;;;;4981715;28;20020;-40
2023/06/09 06:54:24;;;;;;;;;;;18.30;99.90;;;;;;4979236;28;20378;-37
2023/06/09 06:56:51;;;;;;;;;;;18.40;99.90;;;;;;4981328;28;19922;-37
2023/06/09 06:59:18;;;;;;;;;;;18.50;99.90;;;;;;4982002;28;19965;-40
2023/06/09 07:01:45;;;;;;;;;;;18.70;99.90;;;;;;4985925;28;20456;-41
2023/06/09 07:04:12;;;;;;;;;;;18.80;99.90;;;;;;4983161;28;19965;-41
2023/06/09 07:06:38;;;;;;;;;;;18.90;99.90;;;;;;4985451;28;19975;-36
2023/06/09 07:09:07;;;;;;;;;;;19.00;99.90;;;;;;4980165;28;19932;-38
2023/06/09 07:11:33;;;;;;;;;;;19.10;99.90;;;;;;4985176;28;19981;-37
2023/06/09 07:14:00;;;;;;;;;;;19.20;99.90;;;;;;4979168;28;20027;-40
2023/06/09 07:16:27;;;;;;;;;;;19.40;99.90;;;;;;4986629;28;19977;-40
2023/06/09 07:18:53;;;;;;;;;;;19.50;99.90;;;;;;4985854;28;19922;-43
2023/06/09 07:21:20;;;;;;;;;;;19.70;99.90;;;;;;4978052;28;20029;-40
2023/06/09 07:23:47;;;;;;;;;;;19.80;99.90;;;;;;4974612;28;20076;-38
2023/06/09 07:26:15;;;;;;;;;;;19.90;99.90;;;;;;4978449;28;20004;-40
2023/06/09 07:28:41;;;;;;;;;;;20.00;99.90;;;;;;4976610;28;20781;-38
2023/06/09 07:31:08;;;;;;;;;;;20.20;99.90;;;;;;4992197;28;20307;-37
2023/06/09 07:33:37;;;;;;;;;;;20.30;99.90;;;;;;4983903;28;19984;-42
2023/06/09 07:36:04;;;;;;;;;;;20.40;99.90;;;;;;4979857;28;19929;-41
2023/06/09 07:38:30;;;;;;;;;;;20.60;99.90;;;;;;4982815;28;19977;-43
2023/06/09 07:40:57;;;;;;;;;;;20.70;99.10;;;;;;4988597;28;20381;-36
2023/06/09 07:43:25;;;;;;;;;;;20.70;99.20;;;;;;4980944;28;19929;-41
2023/06/09 07:45:52;;;;;;;;;;;20.80;98.90;;;;;;4977815;28;20036;-37
2023/06/09 07:48:18;;;;;;;;;;;20.90;98.80;;;;;;4990782;28;20012;-43
2023/06/09 07:50:45;;;;;;;;;;;21.00;99.10;;;;;;4984120;28;20009;-40
2023/06/09 07:53:12;;;;;;;;;;;21.10;98.10;;;;;;5003671;28;19980;-40
2023/06/09 07:55:38;;;;;;;;;;;21.20;98.00;;;;;;4993517;28;19926;-41
2023/06/09 07:58:05;;;;;;;;;;;21.30;99.10;;;;;;4987417;28;19976;-42
2023/06/09 08:00:39;;;;;;;;;;;21.60;98.20;;;;;;4987713;28;19922;-40
2023/06/09 08:03:06;;;;;;;;;;;21.70;97.60;;;;;;4988714;28;19930;-42
2023/06/09 08:05:33;;;;;;;;;;;21.90;96.90;;;;;;4985585;28;20400;-39
2023/06/09 08:08:00;;;;;;;;;;;22.00;98.00;;;;;;4984796;28;19921;-39
2023/06/09 08:10:27;;;;;;;;;;;22.20;97.70;;;;;;4982674;28;20482;-43
2023/06/09 08:12:53;;;;;;;;;;;22.30;97.60;;;;;;4988778;28;19960;-41
2023/06/09 08:15:20;;;;;;;;;;;22.50;97.60;;;;;;4982595;28;19988;-41
2023/06/09 08:17:48;;;;;;;;;;;22.70;97.10;;;;;;4982299;28;19922;-43
2023/06/09 08:20:15;;;;;;;;;;;22.90;97.20;;;;;;4973707;28;19971;-42
2023/06/09 08:22:41;;;;;;;;;;;23.00;96.00;;;;;;4975225;28;19922;-42
2023/06/09 08:25:09;;;;;;;;;;;23.10;96.20;;;;;;4975426;28;19972;-42
2023/06/09 08:27:36;;;;;;;;;;;23.20;96.30;;;;;;4981384;28;20006;-39
2023/06/09 08:30:03;;;;;;;;;;;23.30;95.40;;;;;;4987894;28;20042;-40
2023/06/09 08:32:30;;;;;;;;;;;23.50;95.50;;;;;;4985421;28;19945;-42
2023/06/09 08:34:58;;;;;;;;;;;23.60;95.20;;;;;;5005348;28;19930;-43
2023/06/09 08:37:25;;;;;;;;;;;23.70;94.50;;;;;;4990862;28;20032;-42
2023/06/09 08:39:54;;;;;;;;;;;23.70;93.40;;;;;;4987848;28;19961;-44
2023/06/09 08:42:22;;;;;;;;;;;23.80;95.20;;;;;;4990457;28;20401;-42
2023/06/09 08:44:50;;;;;;;;;;;23.90;93.50;;;;;;4986592;28;19925;-42
2023/06/09 08:47:17;;;;;;;;;;;24.00;94.30;;;;;;4988979;28;20589;-43
2023/06/09 08:49:44;;;;;;;;;;;24.10;93.90;;;;;;4987989;28;19988;-44
2023/06/09 08:52:12;;;;;;;;;;;24.20;93.40;;;;;;4981666;28;20615;-44
2023/06/09 08:54:38;;;;;;;;;;;24.50;93.60;;;;;;4979040;28;19956;-37
2023/06/09 08:57:06;;;;;;;;;;;24.50;93.70;;;;;;4979362;28;19922;-37
2023/06/09 08:59:34;;;;;;;;;;;24.70;93.20;;;;;;4983758;28;19995;-41
2023/06/09 09:02:00;;;;;;;;;;;24.90;92.60;;;;;;4971535;28;19971;-40
2023/06/09 09:04:27;;;;;;;;;;;25.00;92.90;;;;;;4975881;28;19958;-40
2023/06/09 09:06:54;;;;;;;;;;;25.20;92.40;;;;;;4972575;28;19922;-43
2023/06/09 09:09:22;;;;;;;;;;;25.30;93.00;;;;;;4972117;28;19961;-43
2023/06/09 09:11:50;;;;;;;;;;;25.50;92.00;;;;;;4982177;28;19961;-43
2023/06/09 09:14:17;;;;;;;;;;;25.70;92.50;;;;;;4983094;28;19921;-43
2023/06/09 09:16:43;;;;;;;;;;;25.80;91.40;;;;;;4979270;28;20010;-41
2023/06/09 09:19:10;;;;;;;;;;;25.90;91.40;;;;;;4972559;28;19977;-43
2023/06/09 09:21:37;;;;;;;;;;;26.00;90.70;;;;;;4979251;28;19979;-43
2023/06/09 09:24:04;;;;;;;;;;;26.00;89.40;;;;;;4990330;28;19929;-43
2023/06/09 09:26:32;;;;;;;;;;;26.00;90.10;;;;;;4987489;28;20362;-44
2023/06/09 09:29:00;;;;;;;;;;;26.00;88.80;;;;;;4983514;28;19926;-44
2023/06/09 09:31:31;;;;;;;;;;;26.20;90.00;;;;;;4972427;28;19977;-42
2023/06/09 09:33:58;;;;;;;;;;;26.30;88.00;;;;;;4982300;28;19926;-42
2023/06/09 09:36:24;;;;;;;;;;;26.50;87.60;;;;;;4982174;28;19969;-42
2023/06/09 09:38:51;;;;;;;;;;;26.60;84.80;;;;;;5001244;28;19928;-40
2023/06/09 09:41:18;;;;;;;;;;;26.70;85.50;;;;;;4977292;28;20055;-36
2023/06/09 09:43:47;;;;;;;;;;;26.80;87.50;;;;;;4984338;28;20031;-43
2023/06/09 09:46:14;;;;;;;;;;;27.00;85.30;;;;;;4985964;28;19963;-44
2023/06/09 09:48:40;;;;;;;;;;;27.20;86.30;;;;;;4990640;28;19922;-42
2023/06/09 09:51:08;;;;;;;;;;;27.30;83.90;;;;;;4972693;28;19977;-44
2023/06/09 09:53:35;;;;;;;;;;;27.40;85.00;;;;;;4970661;28;19973;-43
2023/06/09 09:56:01;;;;;;;;;;;27.50;83.90;;;;;;4981630;28;19953;-40
2023/06/09 09:58:29;;;;;;;;;;;27.50;83.70;;;;;;4990070;28;19976;-43
2023/06/09 10:00:57;;;;;;;;;;;27.70;84.80;;;;;;4987448;28;19922;-43
2023/06/09 10:03:24;;;;;;;;;;;27.70;82.40;;;;;;4972051;28;19992;-42
2023/06/09 10:05:50;;;;;;;;;;;27.90;82.80;;;;;;4983530;28;19921;-43
2023/06/09 10:08:18;;;;;;;;;;;28.00;81.30;;;;;;4991410;28;19969;-45
2023/06/09 10:10:45;;;;;;;;;;;28.10;83.20;;;;;;4990894;28;19960;-43
2023/06/09 10:13:12;;;;;;;;;;;28.30;83.10;;;;;;4977563;28;20298;-43
2023/06/09 10:15:38;;;;;;;;;;;28.50;81.80;;;;;;4976525;28;19922;-43
2023/06/09 10:18:06;;;;;;;;;;;28.60;80.40;;;;;;4976808;28;19960;-43
2023/06/09 10:20:33;;;;;;;;;;;28.70;80.40;;;;;;4990859;28;19921;-41
2023/06/09 10:23:00;;;;;;;;;;;28.90;78.40;;;;;;4977529;28;19922;-41
2023/06/09 10:25:26;;;;;;;;;;;29.10;78.40;;;;;;4979058;28;20390;-44
2023/06/09 10:27:53;;;;;;;;;;;29.20;75.10;;;;;;4981390;28;19976;-45
2023/06/09 10:30:20;;;;;;;;;;;29.20;75.80;;;;;;4978117;28;19972;-44
2023/06/09 10:32:48;;;;;;;;;;;29.30;76.90;;;;;;4986475;28;19925;-42
2023/06/09 10:35:17;;;;;;;;;;;29.40;79.20;;;;;;4990181;28;19925;-44
2023/06/09 10:37:46;;;;;;;;;;;29.50;74.70;;;;;;4987330;28;19965;-44
2023/06/09 10:40:17;;;;;;;;;;;29.60;76.50;;;;;;4973553;28;19977;-40
2023/06/09 10:42:50;;;;;;;;;;;29.70;70.50;;;;;;4974337;28;20025;-43
2023/06/09 10:45:18;;;;;;;;;;;29.70;73.30;;;;;;4984473;28;20345;-44
2023/06/09 10:47:45;;;;;;;;;;;29.80;73.90;;;;;;4980072;28;19969;-44
2023/06/09 10:50:23;;;;;;;;;;;29.90;73.90;;;;;;4972900;28;20017;-43
2023/06/09 10:52:52;;;;;;;;;;;30.00;72.30;;;;;;4987617;28;19977;-42
2023/06/09 10:55:21;;;;;;;;;;;30.10;72.70;;;;;;4992118;28;19922;-44
2023/06/09 10:57:47;;;;;;;;;;;30.20;72.50;;;;;;4990830;28;19926;-43
2023/06/09 11:00:15;;;;;;;;;;;30.30;68.30;;;;;;4987424;28;19972;-41
2023/06/09 11:02:43;;;;;;;;;;;30.30;66.90;;;;;;4972854;28;19929;-40
2023/06/09 11:05:09;;;;;;;;;;;30.30;70.00;;;;;;4974799;28;19922;-43
2023/06/09 11:07:41;;;;;;;;;;;30.50;67.60;;;;;;4973578;28;19922;-39
2023/06/09 11:10:29;;;;;;;;;;;30.50;68.20;;;;;;4977566;28;20401;-45
2023/06/09 11:12:55;;;;;;;;;;;30.60;70.70;;;;;;4988550;28;19922;-43
2023/06/09 11:15:22;;;;;;;;;;;30.70;67.20;;;;;;4990062;28;19921;-44
2023/06/09 11:17:49;;;;;;;;;;;30.80;66.70;;;;;;4994322;28;19949;-44
2023/06/09 11:20:17;;;;;;;;;;;30.80;64.80;;;;;;4992161;28;19967;-41
2023/06/09 11:23:06;;;;;;;;;;;30.80;63.10;;;;;;4992024;28;19925;-45
2023/06/09 11:25:37;;;;;;;;;;;30.70;65.60;;;;;;4993337;28;19992;-44
2023/06/09 11:28:21;;;;;;;;;;;30.90;65.80;;;;;;4984193;28;19967;-44
2023/06/09 11:31:01;;;;;;;;;;;31.00;66.30;;;;;;4978589;28;20017;-43
2023/06/09 11:33:47;;;;;;;;;;;31.20;63.80;;;;;;4988871;28;19980;-44
2023/06/09 11:36:18;;;;;;;;;;;31.20;63.50;;;;;;4995248;28;19957;-45
2023/06/09 11:38:46;;;;;;;;;;;31.20;63.80;;;;;;4994842;28;19929;-46
2023/06/09 11:41:13;;;;;;;;;;;31.30;63.20;;;;;;4994713;28;19972;-43
2023/06/09 11:43:40;;;;;;;;;;;31.40;65.60;;;;;;4994808;28;19926;-44
2023/06/09 11:46:06;;;;;;;;;;;31.60;65.30;;;;;;4976988;28;19977;-44
2023/06/09 11:48:33;;;;;;;;;;;31.70;64.60;;;;;;4988937;28;19929;-44
2023/06/09 11:50:59;;;;;;;;;;;31.70;64.30;;;;;;4977507;28;19922;-45
2023/06/09 11:53:26;;;;;;;;;;;31.60;62.20;;;;;;4986682;28;19973;-44
2023/06/09 11:56:01;;;;;;;;;;;31.70;62.90;;;;;;4976554;28;19948;-42
2023/06/09 11:58:28;;;;;;;;;;;31.80;61.60;;;;;;4975494;28;20003;-44
2023/06/09 12:00:55;;;;;;;;;;;31.80;63.10;;;;;;4984550;28;20271;-45
2023/06/09 12:03:23;;;;;;;;;;;31.80;61.90;;;;;;4984298;28;19969;-45
2023/06/09 12:05:50;;;;;;;;;;;32.00;63.50;;;;;;4989936;28;19928;-44
2023/06/09 12:08:18;;;;;;;;;;;32.20;64.30;;;;;;4977216;28;19922;-42
2023/06/09 12:10:44;;;;;;;;;;;32.40;63.90;;;;;;4979129;28;20367;-43
2023/06/09 12:13:12;;;;;;;;;;;32.40;60.60;;;;;;4989250;28;19922;-45
2023/06/09 12:15:39;;;;;;;;;;;32.50;63.30;;;;;;4983460;28;20008;-43
2023/06/09 12:18:06;;;;;;;;;;;32.70;63.30;;;;;;4979249;28;19928;-45
2023/06/09 12:20:33;;;;;;;;;;;32.90;60.40;;;;;;5005478;28;19965;-45
2023/06/09 12:23:02;;;;;;;;;;;33.10;60.80;;;;;;4986197;28;19926;-41
2023/06/09 12:25:29;;;;;;;;;;;33.10;57.00;;;;;;4974421;28;19932;-44
2023/06/09 12:27:56;;;;;;;;;;;33.10;59.00;;;;;;4984444;28;19926;-45
2023/06/09 12:30:34;;;;;;;;;;;33.00;57.70;;;;;;4993553;28;20015;-44
2023/06/09 12:33:04;;;;;;;;;;;33.00;57.50;;;;;;4994287;28;19963;-42
2023/06/09 12:35:37;;;;;;;;;;;33.00;59.30;;;;;;4993751;28;20055;-44
2023/06/09 12:38:09;;;;;;;;;;;33.00;57.00;;;;;;4990718;28;19926;-44
2023/06/09 12:40:42;;;;;;;;;;;32.90;58.20;;;;;;4987403;28;19984;-46
2023/06/09 12:43:09;;;;;;;;;;;32.90;57.40;;;;;;4992995;28;20080;-44
2023/06/09 12:45:37;;;;;;;;;;;33.00;58.90;;;;;;4974742;28;19928;-45
2023/06/09 12:48:05;;;;;;;;;;;33.00;57.10;;;;;;4974925;28;19922;-45
2023/06/09 12:50:32;;;;;;;;;;;33.10;56.80;;;;;;4991276;28;19997;-45
2023/06/09 12:52:59;;;;;;;;;;;33.00;54.90;;;;;;4987556;28;19938;-45
2023/06/09 12:55:25;;;;;;;;;;;32.80;56.70;;;;;;4977414;28;20271;-44
2023/06/09 12:57:52;;;;;;;;;;;32.60;56.60;;;;;;4974477;28;19973;-44
2023/06/09 13:00:19;;;;;;;;;;;32.50;58.10;;;;;;4981355;28;19955;-44
2023/06/09 13:02:47;;;;;;;;;;;32.40;58.40;;;;;;4974851;28;19934;-44
2023/06/09 13:05:14;;;;;;;;;;;32.40;58.30;;;;;;4980649;28;20015;-44
2023/06/09 13:07:41;;;;;;;;;;;32.50;55.80;;;;;;4987679;28;20443;-43
2023/06/09 13:10:07;;;;;;;;;;;32.50;57.90;;;;;;4980943;28;19973;-44
2023/06/09 13:12:35;;;;;;;;;;;32.60;56.70;;;;;;4988253;28;19968;-43
2023/06/09 13:15:01;;;;;;;;;;;32.70;56.00;;;;;;4985287;28;19928;-45
2023/06/09 13:17:28;;;;;;;;;;;32.60;55.90;;;;;;4992669;28;19931;-45
2023/06/09 13:19:56;;;;;;;;;;;32.50;54.60;;;;;;4977703;28;20016;-46
2023/06/09 13:22:23;;;;;;;;;;;32.40;57.60;;;;;;4974925;28;19929;-45
2023/06/09 13:24:49;;;;;;;;;;;32.30;55.00;;;;;;4978579;28;20016;-46
2023/06/09 13:27:16;;;;;;;;;;;32.10;56.40;;;;;;4984418;28;19926;-45
2023/06/09 13:29:43;;;;;;;;;;;32.00;58.50;;;;;;4987257;28;20016;-45
2023/06/09 13:32:09;;;;;;;;;;;32.10;57.80;;;;;;4991660;28;20025;-44
2023/06/09 13:34:37;;;;;;;;;;;32.30;57.10;;;;;;4983292;28;19971;-40
2023/06/09 13:37:05;;;;;;;;;;;32.40;57.80;;;;;;4987966;28;20001;-46
2023/06/09 13:39:32;;;;;;;;;;;32.50;55.80;;;;;;4980589;28;20009;-44
2023/06/09 13:41:59;;;;;;;;;;;32.60;56.60;;;;;;4982926;28;19925;-45
2023/06/09 13:44:25;;;;;;;;;;;32.50;55.40;;;;;;4985218;28;19922;-44
2023/06/09 13:46:52;;;;;;;;;;;32.50;56.80;;;;;;4982516;28;19922;-43
2023/06/09 13:49:18;;;;;;;;;;;32.50;56.30;;;;;;4982243;28;21122;-45
2023/06/09 13:51:45;;;;;;;;;;;32.50;57.90;;;;;;4984932;28;19930;-42
2023/06/09 13:54:13;;;;;;;;;;;32.50;53.20;;;;;;4986955;28;19922;-44
2023/06/09 13:56:40;;;;;;;;;;;32.40;54.20;;;;;;4978746;28;20335;-45
2023/06/09 13:59:06;;;;;;;;;;;32.10;53.60;;;;;;4986300;28;19961;-45
2023/06/09 14:01:35;;;;;;;;;;;32.00;54.10;;;;;;4979153;28;19929;-41
2023/06/09 14:04:02;;;;;;;;;;;32.10;57.00;;;;;;4988090;28;20444;-45
2023/06/09 14:06:29;;;;;;;;;;;32.30;54.20;;;;;;4981721;28;19956;-43
2023/06/09 14:08:55;;;;;;;;;;;32.40;53.10;;;;;;4987515;28;19921;-45
2023/06/09 14:11:23;;;;;;;;;;;32.60;54.00;;;;;;4981982;28;19965;-46
2023/06/09 14:13:50;;;;;;;;;;;32.80;53.20;;;;;;4976023;28;20008;-39
2023/06/09 14:16:17;;;;;;;;;;;32.90;52.10;;;;;;4972374;28;19981;-45
2023/06/09 14:18:43;;;;;;;;;;;33.00;53.20;;;;;;4983082;28;19984;-43